Flight Number: AVA1851 Duration: 0:45
Departure: Athens Eleftherios Venizelos (LGAV) at 11:45 Distance: 141.67 Nm
Arrival: Samos Airport (LGSM) at 12:30 Equipment: CRJ700

Weather Information
Athens Eleftherios Venizelos International Airport, Greece (LGAV) 37-56N 023-56E Jun 19, 2024 - 08:50 AM EDT / 2024.06.19 1250 UTC
Wind: from the N (360 degrees) at 29 MPH (25 KT):0
Visibility: greater than 7 mile(s):0 Temperature: 93 F (34 C) Dew Point: 39 F (4 C) Relative Humidity: 15% Pressure (altimeter): 29.94 in. Hg (1014 hPa)
ob: LGAV 191250Z 36025KT CAVOK 34/04 Q1014 NOSIG cycle: 13
Sunrise: 03:05 Sunset: 17:46 (UTC)

Samos Airport , Greece (LGSM) 37-42N 026-55E 7M Jun 19, 2024 - 08:50 AM EDT / 2024.06.19 1250 UTC
Wind: from the N (350 degrees) at 10 MPH (9 KT):0
Visibility: greater than 7 mile(s):0
Sky conditions: mostly clear Temperature: 95 F (35 C) Dew Point: 50 F (10 C) Relative Humidity: 21% Pressure (altimeter): 29.77 in. Hg (1008 hPa)
ob: LGSM 191250Z 35009KT 9999 FEW025 35/10 Q1008 cycle: 13
Sunrise: 02:54 Sunset: 17:33 (UTC)

TAF:2012/09/21 03:06 TAF LGSM 210200Z 2103/2115 VRB05KT 9999 FEW020 BECMG 2104/2106 30012KT

This route has never been flown.

Route map